createdAt,value
2023-05-02T00:02:03.437Z,55.90
2023-05-02T00:07:06.007Z,55.96
2023-05-02T00:12:07.841Z,56.19
2023-05-02T00:17:09.758Z,56.14
2023-05-02T00:22:11.703Z,56.34
2023-05-02T00:27:14.444Z,56.37
2023-05-02T00:32:16.293Z,56.77
2023-05-02T00:37:18.154Z,56.74
2023-05-02T00:42:20.076Z,56.95
2023-05-02T00:47:25.247Z,56.81
2023-05-02T00:52:28.485Z,57.02
2023-05-02T00:57:30.421Z,57.15
2023-05-02T01:02:44.013Z,57.01
2023-05-02T01:08:30.150Z,57.07
2023-05-02T01:13:38.025Z,56.93
2023-05-02T01:18:43.750Z,57.17
2023-05-02T01:24:03.325Z,57.08
2023-05-02T01:29:08.660Z,57.16
2023-05-02T01:34:11.912Z,57.15
2023-05-02T01:39:19.309Z,57.13
2023-05-02T01:44:23.632Z,57.32
2023-05-02T01:49:27.675Z,57.47
2023-05-02T01:54:30.987Z,57.43
2023-05-02T01:59:34.098Z,57.51
2023-05-02T02:04:38.089Z,57.55
2023-05-02T02:09:41.051Z,57.48
2023-05-02T02:14:50.205Z,57.65
2023-05-02T02:19:56.320Z,57.52
2023-05-02T02:24:59.436Z,57.75
2023-05-02T02:30:01.447Z,57.83
2023-05-02T02:35:04.261Z,57.80
2023-05-02T02:40:17.565Z,58.06
2023-05-02T02:45:46.461Z,58.39
2023-05-02T02:51:16.166Z,58.19
2023-05-02T02:56:27.547Z,58.17
2023-05-02T03:01:32.675Z,58.22
2023-05-02T03:06:34.809Z,58.42
2023-05-02T03:11:36.965Z,58.48
2023-05-02T03:16:42.010Z,58.69
2023-05-02T03:21:49.396Z,58.58
2023-05-02T03:26:59.163Z,58.56
2023-05-02T03:32:07.053Z,58.58
2023-05-02T03:37:10.542Z,58.55
2023-05-02T03:42:12.642Z,58.66
2023-05-02T03:47:14.729Z,58.58
2023-05-02T03:52:18.361Z,58.68
2023-05-02T03:57:21.426Z,58.52
2023-05-02T04:02:23.606Z,58.46
2023-05-02T04:07:26.127Z,58.46
2023-05-02T04:12:37.918Z,58.62
2023-05-02T04:17:40.565Z,58.63
2023-05-02T04:22:46.454Z,58.58
2023-05-02T04:27:48.289Z,58.61
2023-05-02T04:32:53.820Z,58.56
2023-05-02T04:37:56.981Z,58.56
2023-05-02T04:42:59.424Z,58.74
2023-05-02T04:48:07.232Z,58.66
2023-05-02T04:53:09.171Z,58.69
2023-05-02T04:58:12.829Z,58.67
2023-05-02T05:03:16.349Z,58.70
2023-05-02T05:08:21.759Z,58.69
2023-05-02T05:13:23.856Z,58.63
2023-05-02T05:18:26.217Z,58.79
2023-05-02T05:23:28.521Z,58.71
2023-05-02T05:28:30.381Z,58.70
2023-05-02T05:33:32.502Z,58.87
2023-05-02T05:38:36.593Z,58.66
2023-05-02T05:43:39.756Z,58.68
2023-05-02T05:48:42.881Z,58.56
2023-05-02T05:53:45.476Z,58.54
2023-05-02T05:58:49.000Z,58.48
2023-05-02T06:03:52.344Z,58.63
2023-05-02T06:08:54.979Z,58.41
2023-05-02T06:13:57.270Z,58.27
2023-05-02T06:18:59.610Z,58.12
2023-05-02T06:24:01.382Z,57.88
2023-05-02T06:29:03.855Z,57.61
2023-05-02T06:34:05.679Z,57.69
2023-05-02T06:39:07.700Z,57.56
2023-05-02T06:44:09.689Z,57.09
2023-05-02T06:49:11.711Z,56.95
2023-05-02T06:54:14.913Z,57.01
2023-05-02T06:59:19.597Z,56.94
2023-05-02T07:04:21.725Z,56.65
2023-05-02T07:09:23.865Z,56.30
2023-05-02T07:14:25.879Z,56.25
2023-05-02T07:19:27.791Z,56.31
2023-05-02T07:24:30.130Z,56.18
2023-05-02T07:29:32.102Z,56.46
2023-05-02T07:34:34.078Z,56.46
2023-05-02T07:39:35.948Z,56.62
2023-05-02T07:44:37.906Z,56.94
2023-05-02T07:49:40.091Z,57.20
2023-05-02T07:54:42.441Z,57.25
2023-05-02T07:59:45.502Z,57.49
2023-05-02T08:04:48.294Z,57.50
2023-05-02T08:09:50.534Z,57.18
2023-05-02T08:14:52.426Z,57.26
2023-05-02T08:19:54.426Z,57.36
2023-05-02T08:24:56.377Z,57.21
2023-05-02T08:30:00.143Z,57.25
2023-05-02T08:35:03.333Z,56.72
2023-05-02T08:40:05.888Z,56.62
2023-05-02T08:45:09.078Z,56.47
2023-05-02T08:50:12.077Z,56.97
2023-05-02T08:55:14.851Z,57.16
2023-05-02T09:00:17.817Z,57.29
2023-05-02T09:05:24.120Z,57.09
2023-05-02T09:10:28.824Z,56.91
2023-05-02T09:15:30.934Z,56.53
2023-05-02T09:20:41.166Z,56.38
2023-05-02T09:25:43.109Z,56.39
2023-05-02T09:30:45.230Z,55.74
2023-05-02T09:35:55.753Z,55.54
2023-05-02T09:40:57.674Z,55.27
2023-05-02T09:46:08.260Z,55.09
2023-05-02T09:51:18.448Z,55.09
2023-05-02T09:56:21.654Z,54.96
2023-05-02T10:01:24.491Z,54.78
2023-05-02T10:06:28.414Z,54.98
2023-05-02T10:11:32.480Z,55.48
2023-05-02T10:16:38.983Z,55.80
2023-05-02T10:21:44.263Z,55.97
2023-05-02T10:26:46.848Z,55.98
2023-05-02T10:31:50.755Z,56.18
2023-05-02T10:36:52.751Z,55.94
2023-05-02T10:41:58.989Z,56.10
2023-05-02T10:47:01.245Z,55.96
2023-05-02T10:52:27.769Z,56.03
2023-05-02T10:57:29.798Z,56.12
2023-05-02T11:02:31.717Z,56.49
2023-05-02T11:07:36.234Z,56.42
2023-05-02T11:12:48.645Z,56.27
2023-05-02T11:18:07.795Z,56.09
2023-05-02T11:23:30.648Z,56.20
2023-05-02T11:28:46.036Z,56.17
2023-05-02T11:34:02.749Z,56.16
2023-05-02T11:39:18.685Z,56.13
2023-05-02T11:44:20.649Z,56.33
2023-05-02T11:49:22.622Z,56.34
2023-05-02T11:54:24.523Z,56.13
2023-05-02T11:59:26.777Z,55.40
2023-05-02T12:04:28.607Z,55.67
2023-05-02T12:09:30.503Z,55.62
2023-05-02T12:14:36.502Z,55.77
2023-05-02T12:19:38.513Z,55.42
2023-05-02T12:24:41.412Z,55.40
2023-05-02T12:29:46.165Z,55.01
2023-05-02T12:34:47.979Z,55.15
2023-05-02T12:39:50.413Z,54.91
2023-05-02T12:44:53.417Z,54.45
2023-05-02T12:49:57.584Z,53.52
2023-05-02T12:55:18.813Z,53.98
2023-05-02T13:00:21.310Z,54.27
2023-05-02T13:05:23.358Z,54.56
2023-05-02T13:10:26.361Z,54.64
2023-05-02T13:15:28.314Z,54.59
2023-05-02T13:20:30.118Z,54.49
2023-05-02T13:25:31.852Z,54.49
2023-05-02T13:30:33.685Z,54.45
2023-05-02T13:35:35.775Z,54.74
2023-05-02T13:40:37.645Z,54.59
2023-05-02T13:45:42.400Z,54.14
2023-05-02T13:50:44.953Z,54.01
2023-05-02T13:55:46.797Z,54.25
2023-05-02T14:00:49.038Z,54.24
2023-05-02T14:05:51.127Z,54.41
2023-05-02T14:10:53.253Z,54.05
2023-05-02T14:15:55.402Z,54.05
2023-05-02T14:21:00.066Z,54.00
2023-05-02T14:26:02.708Z,54.11
2023-05-02T14:31:04.738Z,53.48
2023-05-02T14:36:07.346Z,53.85
2023-05-02T14:41:10.120Z,53.91
2023-05-02T14:46:12.146Z,53.83
2023-05-02T14:51:14.070Z,53.66
2023-05-02T14:56:17.410Z,54.07
2023-05-02T15:01:20.910Z,54.47
2023-05-02T15:06:23.286Z,54.90
2023-05-02T15:11:25.683Z,55.74
2023-05-02T15:16:27.807Z,56.28
2023-05-02T15:21:31.024Z,56.52
2023-05-02T15:26:32.954Z,56.74
2023-05-02T15:31:35.001Z,57.01
2023-05-02T15:36:40.853Z,57.27
2023-05-02T15:41:42.805Z,57.51
2023-05-02T15:46:47.102Z,57.40
2023-05-02T15:51:49.051Z,57.58
2023-05-02T15:56:51.195Z,57.40
2023-05-02T16:01:53.066Z,57.54
2023-05-02T16:06:55.151Z,57.45
2023-05-02T16:11:58.040Z,57.50
2023-05-02T16:16:59.896Z,57.38
2023-05-02T16:22:02.480Z,57.18
2023-05-02T16:27:04.823Z,57.15
2023-05-02T16:32:08.270Z,57.42
2023-05-02T16:37:10.265Z,57.44
2023-05-02T16:42:12.477Z,57.26
2023-05-02T16:47:14.615Z,57.12
2023-05-02T16:52:16.549Z,57.24
2023-05-02T16:57:19.960Z,56.86
2023-05-02T17:02:22.310Z,56.65
2023-05-02T17:07:24.357Z,56.47
2023-05-02T17:12:26.256Z,56.36
2023-05-02T17:17:28.106Z,56.40
2023-05-02T17:22:29.905Z,56.43
2023-05-02T17:27:31.864Z,56.42
2023-05-02T17:32:34.982Z,56.38
2023-05-02T17:37:38.372Z,56.67
2023-05-02T17:42:43.658Z,56.64
2023-05-02T17:47:45.860Z,56.70
2023-05-02T17:52:47.719Z,56.37
2023-05-02T17:57:49.556Z,56.36
2023-05-02T18:02:51.492Z,56.24
2023-05-02T18:07:53.556Z,56.10
2023-05-02T18:12:55.422Z,56.04
2023-05-02T18:17:57.804Z,56.03
2023-05-02T18:23:01.397Z,56.17
2023-05-02T18:28:04.587Z,55.86
2023-05-02T18:33:08.460Z,55.89
2023-05-02T18:38:10.846Z,55.82
2023-05-02T18:43:12.906Z,55.75
2023-05-02T18:48:14.877Z,55.84
2023-05-02T18:53:16.691Z,55.84
2023-05-02T18:58:18.657Z,55.70
2023-05-02T19:03:20.568Z,55.86
2023-05-02T19:08:22.735Z,55.74
2023-05-02T19:13:27.107Z,55.57
2023-05-02T19:18:28.966Z,55.70
2023-05-02T19:23:31.460Z,55.42
2023-05-02T19:28:33.304Z,55.32
2023-05-02T19:33:35.387Z,55.11
2023-05-02T19:38:41.806Z,55.13
2023-05-02T19:43:44.179Z,55.07
2023-05-02T19:48:46.162Z,55.16
2023-05-02T19:53:47.934Z,55.21
2023-05-02T19:58:49.779Z,55.08
2023-05-02T20:03:51.786Z,55.20
2023-05-02T20:08:53.761Z,55.22
2023-05-02T20:13:55.737Z,55.11
2023-05-02T20:18:57.955Z,54.97
2023-05-02T20:23:59.895Z,54.95
2023-05-02T20:29:03.544Z,54.90
2023-05-02T20:34:06.617Z,54.88
2023-05-02T20:39:10.259Z,54.89
2023-05-02T20:44:17.004Z,54.43
2023-05-02T20:49:18.824Z,54.27
2023-05-02T20:54:20.787Z,54.36
2023-05-02T20:59:22.656Z,54.29
2023-05-02T21:04:24.487Z,54.23
2023-05-02T21:09:26.467Z,54.18
2023-05-02T21:14:28.349Z,54.16
2023-05-02T21:19:33.179Z,54.01
2023-05-02T21:24:35.042Z,54.05
2023-05-02T21:29:36.826Z,53.99
2023-05-02T21:34:38.839Z,53.91
2023-05-02T21:39:40.684Z,53.97
2023-05-02T21:44:42.460Z,53.91
2023-05-02T21:49:44.268Z,53.82
2023-05-02T21:54:50.066Z,54.04
2023-05-02T21:59:51.867Z,53.84
2023-05-02T22:04:54.190Z,53.90
2023-05-02T22:09:56.147Z,53.94
2023-05-02T22:14:58.068Z,53.95
2023-05-02T22:20:00.109Z,53.86
2023-05-02T22:25:03.094Z,54.03
2023-05-02T22:30:06.230Z,54.07
2023-05-02T22:35:09.115Z,54.11
2023-05-02T22:40:12.297Z,54.08
2023-05-02T22:45:14.242Z,54.18
2023-05-02T22:50:16.179Z,54.15
2023-05-02T22:55:17.989Z,54.16
2023-05-02T23:00:19.929Z,54.20
2023-05-02T23:05:22.333Z,54.33
2023-05-02T23:10:24.386Z,54.39
2023-05-02T23:15:26.208Z,54.37
2023-05-02T23:20:28.124Z,54.35
2023-05-02T23:25:30.384Z,54.49
2023-05-02T23:30:32.618Z,54.54
2023-05-02T23:35:37.664Z,54.57
2023-05-02T23:40:39.631Z,54.50
2023-05-02T23:45:41.624Z,54.69
2023-05-02T23:50:43.579Z,54.72
2023-05-02T23:55:45.436Z,54.73
